METAR Data
IDs: Format: Raw Decoded Include TAF

Data at: 1952 UTC 26 Sep 2021

METAR for:KMYR (Myrtle Beach Intl, SC, US)
Text:KMYR 261856Z VRB04KT 10SM FEW060 26/15 A3008 RMK AO2 SLP185 T02560150
Temperature: 25.6°C ( 78°F)
Dewpoint: 15.0°C ( 59°F) [RH = 52%]
Pressure (altimeter):30.08 inches Hg (1018.7 mb) [Sea level pressure: 1018.5 mb]
Winds:variable direction winds at 5 MPH (4 knots; 2.1 m/s)
Visibility:10 or more sm (16+ km)
Ceiling:at least 12,000 feet AGL
Clouds: few clouds at 6000 feet AGL

TAF for:KMYR (Myrtle Beach Intl, SC, US) issued at 1720 UTC 26 Sep 2021
Text:KMYR 261720Z 2618/2718 34007KT P6SM SKC
Forecast period:1800 UTC 26 September 2021 to 0200 UTC 27 September 2021
Forecast type:FROM: standard forecast or significant change
Winds:from the NNW (340 degrees) at 8 MPH (7 knots; 3.6 m/s)
Visibility:6 or more sm (10+ km)
Ceiling:at least 12,000 feet AGL
Clouds:clear skies
Text:FM270200 00000KT P6SM SKC
Forecast period:0200 to 1700 UTC 27 September 2021
Forecast type:FROM: standard forecast or significant change
Winds:calm
Visibility:6 or more sm (10+ km)
Ceiling:at least 12,000 feet AGL
Clouds:clear skies
Text:FM271700 12004KT P6SM SKC
Forecast period:1700 to 1800 UTC 27 September 2021
Forecast type:FROM: standard forecast or significant change
Winds:from the ESE (120 degrees) at 5 MPH (4 knots; 2.1 m/s)
Visibility:6 or more sm (10+ km)
Ceiling:at least 12,000 feet AGL
Clouds:clear skies